Amstelborg — PDAD — position and weather

sailwx.info

Track history (hours):
 
Tides and Currents Weather Stations Pressure Air Temp Water Temp Dewpoint Dewpoint Depression Visibility Wind Speed Wind Dir Waves Ship Positions

Amstelborg

Last reported at 2017-Nov-28 11:51 UTC. Time now 2017-Dec-14 15:19 UTC.
Position N 49°52' W 005°16'.
Warning: this ship's position is 16 days out of date.

Length 141 m; draft 8 m.

Type: Ship. MMSI: 244301000.

Date/timePositionNaut miles runAvg speedWind from/ knotsBaromVisibWave heightAir tempDewpointWater temp
2017-Nov-28 11:51N 49°52' W 005°16'412.4
2017-Nov-28 11:30N 49°53' W 005°09'712.6
2017-Nov-28 10:55N 49°54' W 004°58'512.9
2017-Nov-28 10:30N 49°55' W 004°50'712.9
2017-Nov-28 10:00N 49°57' W 004°40'713.1
2017-Nov-28 09:30N 49°58' W 004°30'612.8
2017-Nov-28 09:00N 49°59' W 004°20'613.3
2017-Nov-28 08:31N 50°00' W 004°10'713.5
2017-Nov-28 08:00N 50°01' W 003°60'713.4
2017-Nov-28 07:31N 50°03' W 003°50'713.6
2017-Nov-28 07:01N 50°04' W 003°39'713.6
2017-Nov-28 06:31N 50°05' W 003°29'713.4
2017-Nov-28 06:01N 50°07' W 003°19'713.2
2017-Nov-28 05:30N 50°08' W 003°08'1312.7
2017-Nov-28 04:31N 50°11' W 002°49'812.0
2017-Nov-28 03:49N 50°13' W 002°36'711.4
2017-Nov-28 03:10N 50°14' W 002°25'211.2
2017-Nov-28 03:00N 50°14' W 002°22'711.1
2017-Nov-28 02:24N 50°16' W 002°12'611.1
2017-Nov-28 01:52N 50°17' W 002°03'411.2
2017-Nov-28 01:30N 50°17' W 001°56'611.5
2017-Nov-28 00:59N 50°19' W 001°47'611.6
2017-Nov-28 00:29N 50°20' W 001°39'912.1
2017-Nov-27 23:47N 50°21' W 001°25'412.3
2017-Nov-27 23:29N 50°22' W 001°20'812.8
2017-Nov-27 22:54N 50°24' W 001°08'513.1
2017-Nov-27 22:31N 50°25' W 001°00'713.5
2017-Nov-27 22:00N 50°26' W 000°50'713.4
2017-Nov-27 21:29N 50°27' W 000°39'713.5
2017-Nov-27 20:58N 50°29' W 000°29'613.5
2017-Nov-27 20:30N 50°30' W 000°19'713.0
2017-Nov-27 20:00N 50°31' W 000°09'612.5
2017-Nov-27 19:30N 50°32' E 000°01'611.9
2017-Nov-27 19:00N 50°33' E 000°10'611.3
2017-Nov-27 18:30N 50°35' E 000°19'510.8
2017-Nov-27 18:00N 50°37' E 000°26'510.4
2017-Nov-27 17:30N 50°39' E 000°34'510.2
2017-Nov-27 17:00N 50°41' E 000°41'510.3
2017-Nov-27 16:30N 50°44' E 000°47'510.4
2017-Nov-27 16:00N 50°48' E 000°54'510.5
2017-Nov-27 15:30N 50°51' E 001°01'611.2
2017-Nov-27 14:57N 50°55' E 001°08'511.6
2017-Nov-27 14:30N 50°58' E 001°15'611.5
2017-Nov-27 14:00N 51°02' E 001°22'611.6
2017-Nov-27 13:30N 51°05' E 001°29'611.4
2017-Nov-27 13:00N 51°09' E 001°36'611.8
2017-Nov-27 12:30N 51°13' E 001°43'611.9
2017-Nov-27 12:00N 51°18' E 001°48'611.7
2017-Nov-27 11:30N 51°23' E 001°52'611.9
2017-Nov-27 11:00N 51°29' E 001°56'611.3
2017-Nov-27 10:31N 51°34' E 001°59'510.8
2017-Nov-27 10:00N 51°39' E 002°03'5 9.8
2017-Nov-27 09:30N 51°43' E 002°06'5 9.6
2017-Nov-27 09:00N 51°48' E 002°09'41311.7
2017-Nov-25 21:42N 58°27' E 005°10'410.9
2017-Nov-25 21:21N 58°31' E 005°12'411.1
2017-Nov-25 21:00N 58°35' E 005°13'611.3
2017-Nov-25 20:30N 58°40' E 005°16'611.3
2017-Nov-25 20:00N 58°46' E 005°18'5 9.5
2017-Nov-25 19:30N 58°48' E 005°26'5 9.4
2017-Nov-25 19:00N 58°52' E 005°31'4 7.1
2017-Nov-25 18:30N 58°56' E 005°33'1 2.1
2017-Nov-25 17:58N 58°56' E 005°35'0 0.0
2017-Nov-25 17:28N 58°56' E 005°35'0 0.0
2017-Nov-25 17:00N 58°56' E 005°35'0 0.0
2017-Nov-25 16:30N 58°56' E 005°35'0 0.0
2017-Nov-25 16:00N 58°56' E 005°35'0 0.0
2017-Nov-25 15:30N 58°56' E 005°35'0 0.0
2017-Nov-25 14:59N 58°56' E 005°35'0 0.0
2017-Nov-25 14:29N 58°56' E 005°35'0 0.0
2017-Nov-25 13:59N 58°56' E 005°35'0 0.0
2017-Nov-25 13:29N 58°56' E 005°35'0 0.0
2017-Nov-25 12:59N 58°56' E 005°35'0 0.0
2017-Nov-25 12:28N 58°56' E 005°35'0 0.0
2017-Nov-25 11:58N 58°56' E 005°35'0 0.0
2017-Nov-25 11:28N 58°56' E 005°35'0 0.0
2017-Nov-25 10:58N 58°56' E 005°35'0 0.0
2017-Nov-25 10:27N 58°56' E 005°35'0 0.0
2017-Nov-25 10:00N 58°56' E 005°35'0 0.0
2017-Nov-25 09:30N 58°56' E 005°35'0 0.0
2017-Nov-25 09:00N 58°56' E 005°35'0 0.0
2017-Nov-25 08:30N 58°56' E 005°35'0 0.1
2017-Nov-25 07:59N 58°56' E 005°35'0 0.0
2017-Nov-25 07:29N 58°56' E 005°35'0 0.0
2017-Nov-25 06:59N 58°56' E 005°35'0 0.0
2017-Nov-25 06:29N 58°56' E 005°35'0 0.0
2017-Nov-25 05:59N 58°56' E 005°35'0 0.0
2017-Nov-25 05:28N 58°56' E 005°35'0 0.0
2017-Nov-25 04:58N 58°56' E 005°35'0 0.0
2017-Nov-25 04:28N 58°56' E 005°35'0 0.0
2017-Nov-25 03:58N 58°56' E 005°35'0 0.0
2017-Nov-25 03:30N 58°56' E 005°35'0 0.0
2017-Nov-25 03:00N 58°56' E 005°35'0 0.0
2017-Nov-25 02:30N 58°56' E 005°35'0 0.0
2017-Nov-25 02:00N 58°56' E 005°35'0 0.0
2017-Nov-25 01:30N 58°56' E 005°35'0 0.0
2017-Nov-25 00:59N 58°56' E 005°35'0 0.0
2017-Nov-25 00:29N 58°56' E 005°35'0 0.0
2017-Nov-24 23:59N 58°56' E 005°35'0 0.0
2017-Nov-24 23:29N 58°56' E 005°35'0 0.0
2017-Nov-24 22:59N 58°56' E 005°35'0 0.0
2017-Nov-24 22:28N 58°56' E 005°35'0 0.0
2017-Nov-24 21:58N 58°56' E 005°35'0 0.0
2017-Nov-24 21:28N 58°56' E 005°35'0 0.0
2017-Nov-24 20:58N 58°56' E 005°35'0 0.0
2017-Nov-24 20:30N 58°56' E 005°35'0 0.0
2017-Nov-24 20:00N 58°56' E 005°35'0 0.0
2017-Nov-24 19:30N 58°56' E 005°35'0 0.1
2017-Nov-24 19:00N 58°56' E 005°35'0 0.0
2017-Nov-24 18:30N 58°56' E 005°35'0 0.0
2017-Nov-24 18:00N 58°56' E 005°35'0 0.0
2017-Nov-24 17:30N 58°56' E 005°35'0 0.0
2017-Nov-24 17:00N 58°56' E 005°35'0 0.0
2017-Nov-24 16:30N 58°56' E 005°35'0 0.0
2017-Nov-24 16:00N 58°56' E 005°35'0 0.0
2017-Nov-24 15:30N 58°56' E 005°35'0 0.0
2017-Nov-24 15:00N 58°56' E 005°35'0 0.0
2017-Nov-24 14:30N 58°56' E 005°35'0 0.0
2017-Nov-24 14:00N 58°56' E 005°35'0 0.0
2017-Nov-24 13:30N 58°56' E 005°35'0 0.0
2017-Nov-24 12:59N 58°56' E 005°35'0 0.0
2017-Nov-24 12:30N 58°56' E 005°35'0 0.0
2017-Nov-24 12:00N 58°56' E 005°35'3 5.2
2017-Nov-24 11:29N 58°58' E 005°33'612.9
2017-Nov-24 10:59N 59°04' E 005°32'612.1
2017-Nov-24 10:30N 59°10' E 005°33'4 8.2
2017-Nov-24 09:59N 59°14' E 005°30'0 0.2
2017-Nov-24 09:30N 59°14' E 005°30'0 0.0
2017-Nov-24 09:00N 59°14' E 005°30'0 0.1
2017-Nov-24 08:29N 59°14' E 005°30'0 0.1
2017-Nov-24 07:59N 59°14' E 005°30'0 0.0
2017-Nov-24 07:29N 59°14' E 005°30'0 0.0
2017-Nov-24 06:59N 59°14' E 005°30'0 0.0
2017-Nov-24 06:29N 59°14' E 005°30'0 0.0
2017-Nov-24 05:58N 59°14' E 005°30'0 0.0
2017-Nov-24 05:28N 59°14' E 005°30'0 0.0
2017-Nov-24 04:55N 59°14' E 005°30'0 0.1
2017-Nov-24 04:28N 59°14' E 005°30'0 0.0
2017-Nov-24 04:00N 59°14' E 005°30'0 0.1
2017-Nov-24 03:30N 59°14' E 005°30'0 0.0
2017-Nov-24 03:00N 59°14' E 005°30'0 0.0
2017-Nov-24 02:30N 59°14' E 005°30'0 0.0
2017-Nov-24 02:00N 59°14' E 005°30'0 0.0
2017-Nov-24 01:29N 59°14' E 005°30'0 0.1
2017-Nov-24 00:59N 59°14' E 005°30'0 0.1
2017-Nov-24 00:29N 59°14' E 005°30'0 0.1
2017-Nov-23 23:59N 59°14' E 005°30'0 0.0
2017-Nov-23 23:28N 59°14' E 005°30'0 0.1
2017-Nov-23 22:58N 59°14' E 005°30'0 0.1
2017-Nov-23 22:28N 59°14' E 005°30'0 0.1
2017-Nov-23 21:58N 59°14' E 005°30'0 0.1
2017-Nov-23 21:28N 59°14' E 005°30'0 0.0
2017-Nov-23 21:00N 59°14' E 005°30'0 0.0
2017-Nov-23 20:30N 59°14' E 005°30'0 0.0
2017-Nov-23 20:00N 59°14' E 005°30'0 0.0
2017-Nov-23 19:30N 59°14' E 005°30'0 0.0
2017-Nov-23 19:00N 59°14' E 005°30'0 0.0
2017-Nov-23 18:29N 59°14' E 005°30'0 0.0
2017-Nov-23 17:59N 59°14' E 005°30'0 0.1
2017-Nov-23 17:29N 59°14' E 005°30'0 0.0
2017-Nov-23 16:59N 59°14' E 005°30'0 0.0
2017-Nov-23 16:28N 59°14' E 005°30'0 0.1
2017-Nov-23 15:58N 59°14' E 005°30'0 0.2
2017-Nov-23 15:28N 59°14' E 005°30'0 0.0
2017-Nov-23 14:58N 59°14' E 005°30'0 0.1
2017-Nov-23 14:28N 59°14' E 005°30'0 0.0
2017-Nov-23 14:00N 59°14' E 005°30'0 0.1
2017-Nov-23 13:30N 59°14' E 005°30'0 0.1
2017-Nov-23 13:00N 59°14' E 005°30'0 0.0
2017-Nov-23 12:30N 59°14' E 005°30'0 0.1
2017-Nov-23 12:00N 59°14' E 005°30'0 0.1
2017-Nov-23 11:29N 59°14' E 005°30'0 0.2
2017-Nov-23 10:59N 59°14' E 005°30'0 0.1
2017-Nov-23 10:29N 59°14' E 005°30'0 0.2
2017-Nov-23 09:59N 59°14' E 005°30'0 0.1
2017-Nov-23 09:28N 59°14' E 005°30'0 0.0
2017-Nov-23 08:58N 59°14' E 005°30'0 0.0
2017-Nov-23 08:28N 59°14' E 005°30'0 0.1
2017-Nov-23 08:00N 59°14' E 005°30'0 0.2
2017-Nov-23 07:30N 59°14' E 005°30'4 8.4
2017-Nov-23 07:00N 59°11' E 005°33'4 9.0
2017-Nov-23 06:30N 59°06' E 005°30'5 9.5
2017-Nov-23 06:00N 59°05' E 005°21'612.8
2017-Nov-23 05:30N 59°01' E 005°12'612.8
2017-Nov-23 05:00N 58°56' E 005°03'612.2
2017-Nov-23 04:30N 58°52' E 004°55'612.3
2017-Nov-23 04:00N 58°47' E 004°48'59 7.4
2017-Nov-22 20:07N 57°56' E 005°45'312.0
2017-Nov-22 19:52N 57°55' E 005°51'512.5
2017-Nov-22 19:30N 57°54' E 005°59'  
2017-Nov-19 13:22N 59°33' E 022°54'513.3
2017-Nov-19 13:01N 59°34' E 023°03'713.2
2017-Nov-19 12:31N 59°36' E 023°16'713.1
2017-Nov-19 12:01N 59°38' E 023°28'612.8
2017-Nov-19 11:31N 59°40' E 023°40'612.6
2017-Nov-19 11:01N 59°42' E 023°52'612.5
2017-Nov-19 10:30N 59°44' E 024°04'612.5
2017-Nov-19 09:59N 59°46' E 024°16'612.6
2017-Nov-19 09:31N 59°47' E 024°28'713.5
2017-Nov-19 09:01N 59°49' E 024°41'611.7
2017-Nov-19 08:31N 59°50' E 024°53'612.7
2017-Nov-19 08:01N 59°51' E 025°05'612.9
2017-Nov-19 07:31N 59°52' E 025°18'814.0
2017-Nov-19 06:58N 59°54' E 025°32'2013.4
2017-Nov-19 05:26N 59°59' E 026°12'410.5
2017-Nov-19 05:00N 60°00' E 026°21'612.6
2017-Nov-19 04:30N 60°01' E 026°33'612.8
2017-Nov-19 04:00N 60°01' E 026°46'713.1
2017-Nov-19 03:30N 59°60' E 026°59'713.6
2017-Nov-19 03:00N 60°02' E 027°12'611.5
2017-Nov-19 02:30N 60°05' E 027°21'611.7
2017-Nov-19 02:00N 60°08' E 027°31'611.6
2017-Nov-19 01:30N 60°11' E 027°41'611.2
2017-Nov-19 01:00N 60°11' E 027°52'612.4
2017-Nov-19 00:30N 60°09' E 028°04'613.0
2017-Nov-19 00:00N 60°08' E 028°17'713.0
2017-Nov-18 23:30N 60°04' E 028°28'612.7
2017-Nov-18 23:00N 60°03' E 028°40'612.4
2017-Nov-18 22:30N 60°03' E 028°53'612.7
2017-Nov-18 22:00N 60°02' E 029°05'1610.9
2017-Nov-18 20:33N 60°00' E 029°37'111.7
2017-Nov-18 20:28N 60°00' E 029°38'510.5
2017-Nov-18 20:00N 59°58' E 029°47'510.9
2017-Nov-18 19:30N 59°56' E 029°57'510.5
2017-Nov-18 19:01N 59°54' E 030°07'3 5.5
2017-Nov-18 18:30N 59°53' E 030°12'1 1.4
2017-Nov-18 17:59N 59°52' E 030°13'0 0.0
2017-Nov-18 17:28N 59°52' E 030°13'0 0.0
2017-Nov-18 16:58N 59°52' E 030°13'0 0.0
2017-Nov-18 16:28N 59°52' E 030°13'0 0.0
2017-Nov-18 15:58N 59°52' E 030°13'0 0.0
2017-Nov-18 15:30N 59°52' E 030°13'0 0.0
2017-Nov-18 15:00N 59°52' E 030°13'0 0.0
2017-Nov-18 14:30N 59°52' E 030°13'0 0.0
2017-Nov-18 14:00N 59°52' E 030°13'0 0.0
2017-Nov-18 13:30N 59°52' E 030°13'0 0.0
2017-Nov-18 12:59N 59°52' E 030°13'0 0.0
2017-Nov-18 12:29N 59°52' E 030°13'0 0.0
2017-Nov-18 11:59N 59°52' E 030°13'  
Track history (hours):
 
Tides and Currents Weather Stations Pressure Air Temp Water Temp Dewpoint Dewpoint Depression Visibility Wind Speed Wind Dir Waves Ship Positions

Amstelborg

Last reported at 2017-Nov-28 11:51 UTC. Time now 2017-Dec-14 15:19 UTC.
Position N 49°52' W 005°16'.
Warning: this ship's position is 16 days out of date.

Length 141 m; draft 8 m.

Type: Ship. MMSI: 244301000.

Date/timePositionNaut miles runAvg speedWind from/ knotsBaromVisibWave heightAir tempDewpointWater temp
2017-Nov-28 11:51N 49°52' W 005°16'412.4
2017-Nov-28 11:30N 49°53' W 005°09'712.6
2017-Nov-28 10:55N 49°54' W 004°58'512.9
2017-Nov-28 10:30N 49°55' W 004°50'712.9
2017-Nov-28 10:00N 49°57' W 004°40'713.1
2017-Nov-28 09:30N 49°58' W 004°30'612.8
2017-Nov-28 09:00N 49°59' W 004°20'613.3
2017-Nov-28 08:31N 50°00' W 004°10'713.5
2017-Nov-28 08:00N 50°01' W 003°60'713.4
2017-Nov-28 07:31N 50°03' W 003°50'713.6
2017-Nov-28 07:01N 50°04' W 003°39'713.6
2017-Nov-28 06:31N 50°05' W 003°29'713.4
2017-Nov-28 06:01N 50°07' W 003°19'713.2
2017-Nov-28 05:30N 50°08' W 003°08'1312.7
2017-Nov-28 04:31N 50°11' W 002°49'812.0
2017-Nov-28 03:49N 50°13' W 002°36'711.4
2017-Nov-28 03:10N 50°14' W 002°25'211.2
2017-Nov-28 03:00N 50°14' W 002°22'711.1
2017-Nov-28 02:24N 50°16' W 002°12'611.1
2017-Nov-28 01:52N 50°17' W 002°03'411.2
2017-Nov-28 01:30N 50°17' W 001°56'611.5
2017-Nov-28 00:59N 50°19' W 001°47'611.6
2017-Nov-28 00:29N 50°20' W 001°39'912.1
2017-Nov-27 23:47N 50°21' W 001°25'412.3
2017-Nov-27 23:29N 50°22' W 001°20'812.8
2017-Nov-27 22:54N 50°24' W 001°08'513.1
2017-Nov-27 22:31N 50°25' W 001°00'713.5
2017-Nov-27 22:00N 50°26' W 000°50'713.4
2017-Nov-27 21:29N 50°27' W 000°39'713.5
2017-Nov-27 20:58N 50°29' W 000°29'613.5
2017-Nov-27 20:30N 50°30' W 000°19'713.0
2017-Nov-27 20:00N 50°31' W 000°09'612.5
2017-Nov-27 19:30N 50°32' E 000°01'611.9
2017-Nov-27 19:00N 50°33' E 000°10'611.3
2017-Nov-27 18:30N 50°35' E 000°19'510.8
2017-Nov-27 18:00N 50°37' E 000°26'510.4
2017-Nov-27 17:30N 50°39' E 000°34'510.2
2017-Nov-27 17:00N 50°41' E 000°41'510.3
2017-Nov-27 16:30N 50°44' E 000°47'510.4
2017-Nov-27 16:00N 50°48' E 000°54'510.5
2017-Nov-27 15:30N 50°51' E 001°01'611.2
2017-Nov-27 14:57N 50°55' E 001°08'511.6
2017-Nov-27 14:30N 50°58' E 001°15'611.5
2017-Nov-27 14:00N 51°02' E 001°22'611.6
2017-Nov-27 13:30N 51°05' E 001°29'611.4
2017-Nov-27 13:00N 51°09' E 001°36'611.8
2017-Nov-27 12:30N 51°13' E 001°43'611.9
2017-Nov-27 12:00N 51°18' E 001°48'611.7
2017-Nov-27 11:30N 51°23' E 001°52'611.9
2017-Nov-27 11:00N 51°29' E 001°56'611.3
2017-Nov-27 10:31N 51°34' E 001°59'510.8
2017-Nov-27 10:00N 51°39' E 002°03'5 9.8
2017-Nov-27 09:30N 51°43' E 002°06'5 9.6
2017-Nov-27 09:00N 51°48' E 002°09'41311.7
2017-Nov-25 21:42N 58°27' E 005°10'410.9
2017-Nov-25 21:21N 58°31' E 005°12'411.1
2017-Nov-25 21:00N 58°35' E 005°13'611.3
2017-Nov-25 20:30N 58°40' E 005°16'611.3
2017-Nov-25 20:00N 58°46' E 005°18'5 9.5
2017-Nov-25 19:30N 58°48' E 005°26'5 9.4
2017-Nov-25 19:00N 58°52' E 005°31'4 7.1
2017-Nov-25 18:30N 58°56' E 005°33'1 2.1
2017-Nov-25 17:58N 58°56' E 005°35'0 0.0
2017-Nov-25 17:28N 58°56' E 005°35'0 0.0
2017-Nov-25 17:00N 58°56' E 005°35'0 0.0
2017-Nov-25 16:30N 58°56' E 005°35'0 0.0
2017-Nov-25 16:00N 58°56' E 005°35'0 0.0
2017-Nov-25 15:30N 58°56' E 005°35'0 0.0
2017-Nov-25 14:59N 58°56' E 005°35'0 0.0
2017-Nov-25 14:29N 58°56' E 005°35'0 0.0
2017-Nov-25 13:59N 58°56' E 005°35'0 0.0
2017-Nov-25 13:29N 58°56' E 005°35'0 0.0
2017-Nov-25 12:59N 58°56' E 005°35'0 0.0
2017-Nov-25 12:28N 58°56' E 005°35'0 0.0
2017-Nov-25 11:58N 58°56' E 005°35'0 0.0
2017-Nov-25 11:28N 58°56' E 005°35'0 0.0
2017-Nov-25 10:58N 58°56' E 005°35'0 0.0
2017-Nov-25 10:27N 58°56' E 005°35'0 0.0
2017-Nov-25 10:00N 58°56' E 005°35'0 0.0
2017-Nov-25 09:30N 58°56' E 005°35'0 0.0
2017-Nov-25 09:00N 58°56' E 005°35'0 0.0
2017-Nov-25 08:30N 58°56' E 005°35'0 0.1
2017-Nov-25 07:59N 58°56' E 005°35'0 0.0
2017-Nov-25 07:29N 58°56' E 005°35'0 0.0
2017-Nov-25 06:59N 58°56' E 005°35'0 0.0
2017-Nov-25 06:29N 58°56' E 005°35'0 0.0
2017-Nov-25 05:59N 58°56' E 005°35'0 0.0
2017-Nov-25 05:28N 58°56' E 005°35'0 0.0
2017-Nov-25 04:58N 58°56' E 005°35'0 0.0
2017-Nov-25 04:28N 58°56' E 005°35'0 0.0
2017-Nov-25 03:58N 58°56' E 005°35'0 0.0
2017-Nov-25 03:30N 58°56' E 005°35'0 0.0
2017-Nov-25 03:00N 58°56' E 005°35'0 0.0
2017-Nov-25 02:30N 58°56' E 005°35'0 0.0
2017-Nov-25 02:00N 58°56' E 005°35'0 0.0
2017-Nov-25 01:30N 58°56' E 005°35'0 0.0
2017-Nov-25 00:59N 58°56' E 005°35'0 0.0
2017-Nov-25 00:29N 58°56' E 005°35'0 0.0
2017-Nov-24 23:59N 58°56' E 005°35'0 0.0
2017-Nov-24 23:29N 58°56' E 005°35'0 0.0
2017-Nov-24 22:59N 58°56' E 005°35'0 0.0
2017-Nov-24 22:28N 58°56' E 005°35'0 0.0
2017-Nov-24 21:58N 58°56' E 005°35'0 0.0
2017-Nov-24 21:28N 58°56' E 005°35'0 0.0
2017-Nov-24 20:58N 58°56' E 005°35'0 0.0
2017-Nov-24 20:30N 58°56' E 005°35'0 0.0
2017-Nov-24 20:00N 58°56' E 005°35'0 0.0
2017-Nov-24 19:30N 58°56' E 005°35'0 0.1
2017-Nov-24 19:00N 58°56' E 005°35'0 0.0
2017-Nov-24 18:30N 58°56' E 005°35'0 0.0
2017-Nov-24 18:00N 58°56' E 005°35'0 0.0
2017-Nov-24 17:30N 58°56' E 005°35'0 0.0
2017-Nov-24 17:00N 58°56' E 005°35'0 0.0
2017-Nov-24 16:30N 58°56' E 005°35'0 0.0
2017-Nov-24 16:00N 58°56' E 005°35'0 0.0
2017-Nov-24 15:30N 58°56' E 005°35'0 0.0
2017-Nov-24 15:00N 58°56' E 005°35'0 0.0
2017-Nov-24 14:30N 58°56' E 005°35'0 0.0
2017-Nov-24 14:00N 58°56' E 005°35'0 0.0
2017-Nov-24 13:30N 58°56' E 005°35'0 0.0
2017-Nov-24 12:59N 58°56' E 005°35'0 0.0
2017-Nov-24 12:30N 58°56' E 005°35'0 0.0
2017-Nov-24 12:00N 58°56' E 005°35'3 5.2
2017-Nov-24 11:29N 58°58' E 005°33'612.9
2017-Nov-24 10:59N 59°04' E 005°32'612.1
2017-Nov-24 10:30N 59°10' E 005°33'4 8.2
2017-Nov-24 09:59N 59°14' E 005°30'0 0.2
2017-Nov-24 09:30N 59°14' E 005°30'0 0.0
2017-Nov-24 09:00N 59°14' E 005°30'0 0.1
2017-Nov-24 08:29N 59°14' E 005°30'0 0.1
2017-Nov-24 07:59N 59°14' E 005°30'0 0.0
2017-Nov-24 07:29N 59°14' E 005°30'0 0.0
2017-Nov-24 06:59N 59°14' E 005°30'0 0.0
2017-Nov-24 06:29N 59°14' E 005°30'0 0.0
2017-Nov-24 05:58N 59°14' E 005°30'0 0.0
2017-Nov-24 05:28N 59°14' E 005°30'0 0.0
2017-Nov-24 04:55N 59°14' E 005°30'0 0.1
2017-Nov-24 04:28N 59°14' E 005°30'0 0.0
2017-Nov-24 04:00N 59°14' E 005°30'0 0.1
2017-Nov-24 03:30N 59°14' E 005°30'0 0.0
2017-Nov-24 03:00N 59°14' E 005°30'0 0.0
2017-Nov-24 02:30N 59°14' E 005°30'0 0.0
2017-Nov-24 02:00N 59°14' E 005°30'0 0.0
2017-Nov-24 01:29N 59°14' E 005°30'0 0.1
2017-Nov-24 00:59N 59°14' E 005°30'0 0.1
2017-Nov-24 00:29N 59°14' E 005°30'0 0.1
2017-Nov-23 23:59N 59°14' E 005°30'0 0.0
2017-Nov-23 23:28N 59°14' E 005°30'0 0.1
2017-Nov-23 22:58N 59°14' E 005°30'0 0.1
2017-Nov-23 22:28N 59°14' E 005°30'0 0.1
2017-Nov-23 21:58N 59°14' E 005°30'0 0.1
2017-Nov-23 21:28N 59°14' E 005°30'0 0.0
2017-Nov-23 21:00N 59°14' E 005°30'0 0.0
2017-Nov-23 20:30N 59°14' E 005°30'0 0.0
2017-Nov-23 20:00N 59°14' E 005°30'0 0.0
2017-Nov-23 19:30N 59°14' E 005°30'0 0.0
2017-Nov-23 19:00N 59°14' E 005°30'0 0.0
2017-Nov-23 18:29N 59°14' E 005°30'0 0.0
2017-Nov-23 17:59N 59°14' E 005°30'0 0.1
2017-Nov-23 17:29N 59°14' E 005°30'0 0.0
2017-Nov-23 16:59N 59°14' E 005°30'0 0.0
2017-Nov-23 16:28N 59°14' E 005°30'0 0.1
2017-Nov-23 15:58N 59°14' E 005°30'0 0.2
2017-Nov-23 15:28N 59°14' E 005°30'0 0.0
2017-Nov-23 14:58N 59°14' E 005°30'0 0.1
2017-Nov-23 14:28N 59°14' E 005°30'0 0.0
2017-Nov-23 14:00N 59°14' E 005°30'0 0.1
2017-Nov-23 13:30N 59°14' E 005°30'0 0.1
2017-Nov-23 13:00N 59°14' E 005°30'0 0.0
2017-Nov-23 12:30N 59°14' E 005°30'0 0.1
2017-Nov-23 12:00N 59°14' E 005°30'0 0.1
2017-Nov-23 11:29N 59°14' E 005°30'0 0.2
2017-Nov-23 10:59N 59°14' E 005°30'0 0.1
2017-Nov-23 10:29N 59°14' E 005°30'0 0.2
2017-Nov-23 09:59N 59°14' E 005°30'0 0.1
2017-Nov-23 09:28N 59°14' E 005°30'0 0.0
2017-Nov-23 08:58N 59°14' E 005°30'0 0.0
2017-Nov-23 08:28N 59°14' E 005°30'0 0.1
2017-Nov-23 08:00N 59°14' E 005°30'0 0.2
2017-Nov-23 07:30N 59°14' E 005°30'4 8.4
2017-Nov-23 07:00N 59°11' E 005°33'4 9.0
2017-Nov-23 06:30N 59°06' E 005°30'5 9.5
2017-Nov-23 06:00N 59°05' E 005°21'612.8
2017-Nov-23 05:30N 59°01' E 005°12'612.8
2017-Nov-23 05:00N 58°56' E 005°03'612.2
2017-Nov-23 04:30N 58°52' E 004°55'612.3
2017-Nov-23 04:00N 58°47' E 004°48'59 7.4
2017-Nov-22 20:07N 57°56' E 005°45'312.0
2017-Nov-22 19:52N 57°55' E 005°51'512.5
2017-Nov-22 19:30N 57°54' E 005°59'  
2017-Nov-19 13:22N 59°33' E 022°54'513.3
2017-Nov-19 13:01N 59°34' E 023°03'713.2
2017-Nov-19 12:31N 59°36' E 023°16'713.1
2017-Nov-19 12:01N 59°38' E 023°28'612.8
2017-Nov-19 11:31N 59°40' E 023°40'612.6
2017-Nov-19 11:01N 59°42' E 023°52'612.5
2017-Nov-19 10:30N 59°44' E 024°04'612.5
2017-Nov-19 09:59N 59°46' E 024°16'612.6
2017-Nov-19 09:31N 59°47' E 024°28'713.5
2017-Nov-19 09:01N 59°49' E 024°41'611.7
2017-Nov-19 08:31N 59°50' E 024°53'612.7
2017-Nov-19 08:01N 59°51' E 025°05'612.9
2017-Nov-19 07:31N 59°52' E 025°18'814.0
2017-Nov-19 06:58N 59°54' E 025°32'2013.4
2017-Nov-19 05:26N 59°59' E 026°12'410.5
2017-Nov-19 05:00N 60°00' E 026°21'612.6
2017-Nov-19 04:30N 60°01' E 026°33'612.8
2017-Nov-19 04:00N 60°01' E 026°46'713.1
2017-Nov-19 03:30N 59°60' E 026°59'713.6
2017-Nov-19 03:00N 60°02' E 027°12'611.5
2017-Nov-19 02:30N 60°05' E 027°21'611.7
2017-Nov-19 02:00N 60°08' E 027°31'611.6
2017-Nov-19 01:30N 60°11' E 027°41'611.2
2017-Nov-19 01:00N 60°11' E 027°52'612.4
2017-Nov-19 00:30N 60°09' E 028°04'613.0
2017-Nov-19 00:00N 60°08' E 028°17'713.0
2017-Nov-18 23:30N 60°04' E 028°28'612.7
2017-Nov-18 23:00N 60°03' E 028°40'612.4
2017-Nov-18 22:30N 60°03' E 028°53'612.7
2017-Nov-18 22:00N 60°02' E 029°05'1610.9
2017-Nov-18 20:33N 60°00' E 029°37'111.7
2017-Nov-18 20:28N 60°00' E 029°38'510.5
2017-Nov-18 20:00N 59°58' E 029°47'510.9
2017-Nov-18 19:30N 59°56' E 029°57'510.5
2017-Nov-18 19:01N 59°54' E 030°07'3 5.5
2017-Nov-18 18:30N 59°53' E 030°12'1 1.4
2017-Nov-18 17:59N 59°52' E 030°13'0 0.0
2017-Nov-18 17:28N 59°52' E 030°13'0 0.0
2017-Nov-18 16:58N 59°52' E 030°13'0 0.0
2017-Nov-18 16:28N 59°52' E 030°13'0 0.0
2017-Nov-18 15:58N 59°52' E 030°13'0 0.0
2017-Nov-18 15:30N 59°52' E 030°13'0 0.0
2017-Nov-18 15:00N 59°52' E 030°13'0 0.0
2017-Nov-18 14:30N 59°52' E 030°13'0 0.0
2017-Nov-18 14:00N 59°52' E 030°13'0 0.0
2017-Nov-18 13:30N 59°52' E 030°13'0 0.0
2017-Nov-18 12:59N 59°52' E 030°13'0 0.0
2017-Nov-18 12:29N 59°52' E 030°13'0 0.0
2017-Nov-18 11:59N 59°52' E 030°13'  

Dump ship's entire track history